Meteo Giornale » Osservazioni meteo Brasile » Vitoria Aeroporto
ore: 18:00 - Osservazioni Meteo Vitoria Aeroporto
Lat. 20° 16' S Lon. 40° 17' W Alt. 4 metri s.l.m.
24 °C
Poco Nuvoloso
Temp. 24 Ore
22 °C
31 °C
Nord-Est
37 Km/h
Dew point 22 °C
Umidità 88 %
Visibilità 10 Km
Il sole sorge alle ore 05:50
Il sole tramonta alle ore 17:32
| Data e Ora | Cielo e Fenomeni | T °C | DP °C | Um. % | Pres. hPa | Vis. km | Vento km/h | |
|---|---|---|---|---|---|---|---|---|
| Oggi h: 18:00 | Poco Nuvoloso | 24 | 22 | 88 | 1013 | 10 | NE 37 | |
| Oggi h: 17:00 | Sereno | 25 | 21 | 78 | 1013 | 10 | NE 37 | |
| Oggi h: 16:00 | Sereno | 27 | 21 | 69 | 1013 | 10 | NE 33.3 | |
| Oggi h: 15:00 | Sereno | 27 | 21 | 69 | 1013 | 10 | NE 33.3 | |
| Oggi h: 14:00 | Sereno | 28 | 21 | 65 | 1014 | 10 | E/NE 33.3 | |
| Oggi h: 13:00 | Poco Nuvoloso | 30 | 20 | 55 | 1015 | 10 | NE 33.3 | |
| Oggi h: 12:00 | Poco Nuvoloso | 31 | 20 | 52 | 1016 | 10 | N 27.8 | |
| Oggi h: 11:00 | Poco Nuvoloso | 29 | 19 | 54 | 1017 | 10 | N/NE 35.2 | |
| Oggi h: 10:00 | Poco Nuvoloso | 28 | 19 | 58 | 1018 | 10 | N 22.2 | |
| Oggi h: 09:00 | Poco Nuvoloso | 26 | 19 | 65 | 1018 | 10 | N 20.3 | |
| Oggi h: 08:00 | Poco Nuvoloso | 25 | 19 | 69 | 1018 | 10 | N 16.7 | |
| Oggi h: 07:00 | Nuvoloso | 23 | 18 | 73 | 1018 | 10 | NO 11.1 | |
| Oggi h: 06:00 | Molto Nuvoloso | 23 | 18 | 73 | 1017 | 10 | N 9.3 | |
| Oggi h: 05:00 | Poco Nuvoloso | 23 | 18 | 73 | 1016 | 10 | N 9.3 | |
| Oggi h: 04:00 | Sereno | 23 | 18 | 73 | 1016 | 10 | N 14.8 | |
| Oggi h: 03:00 | Sereno | 22 | 19 | 83 | 1015 | 10 | NO 7.4 | |
| Oggi h: 02:00 | Sereno | 23 | 20 | 83 | 1015 | 10 | N 11.1 | |
| Oggi h: 01:00 | Sereno | 23 | 13 | 53 | 1015 | 10 | N 22.2 | |
| Oggi h: 00:00 | Sereno | 23 | 20 | 83 | 1015 | 10 | N 16.7 | |
| Ieri h: 23:00 | Sereno | 23 | 20 | 83 | 1015 | 10 | N/NE 22.2 | |
| Ieri h: 22:00 | Sereno | 23 | 21 | 88 | 1015 | 10 | N/NE 24 | |
| Ieri h: 21:00 | Sereno | 24 | 20 | 78 | 1015 | 10 | N/NE 25.9 | |
| Ieri h: 20:37 | Sereno | 24 | 20 | 78 | 1015 | 10 | N/NE 27.8 | |
| Ieri h: 20:00 | Sereno | 24 | 20 | 78 | 1014 | 10 | N/NE 27.8 | |
| Ieri h: 19:00 | Sereno | 24 | 21 | 83 | 1014 | 10 | NE 24 | |



